createdAt,value
2017-07-12T00:00:54.926Z,72.69
2017-07-12T00:03:22.324Z,72.37
2017-07-12T00:05:49.736Z,72.89
2017-07-12T00:08:17.141Z,73.33
2017-07-12T00:10:44.544Z,73.74
2017-07-12T00:13:11.943Z,74.07
2017-07-12T00:15:39.352Z,74.16
2017-07-12T00:18:06.751Z,74.12
2017-07-12T00:20:34.165Z,73.86
2017-07-12T00:23:01.562Z,74.41
2017-07-12T00:25:29.204Z,75.04
2017-07-12T00:27:56.607Z,75.01
2017-07-12T00:30:24.021Z,74.67
2017-07-12T00:32:51.422Z,74.85
2017-07-12T00:35:18.828Z,74.91
2017-07-12T00:37:46.225Z,73.77
2017-07-12T00:40:13.943Z,73.96
2017-07-12T00:42:41.344Z,73.63
2017-07-12T00:45:08.749Z,73.56
2017-07-12T00:47:36.161Z,73.16
2017-07-12T00:50:03.570Z,72.31
2017-07-12T00:52:30.970Z,72.00
2017-07-12T00:54:58.375Z,71.40
2017-07-12T00:57:25.782Z,71.44
2017-07-12T00:59:53.195Z,71.82
2017-07-12T01:02:20.592Z,71.50
2017-07-12T01:04:48.001Z,72.88
2017-07-12T01:07:15.395Z,73.22
2017-07-12T01:09:42.828Z,74.29
2017-07-12T01:12:10.230Z,74.97
2017-07-12T01:14:37.632Z,75.98
2017-07-12T01:17:05.041Z,75.69
2017-07-12T01:19:32.436Z,76.48
2017-07-12T01:21:59.843Z,76.92
2017-07-12T01:24:27.239Z,76.95
2017-07-12T01:26:54.638Z,76.24
2017-07-12T01:29:22.042Z,76.67
2017-07-12T01:31:49.446Z,78.04
2017-07-12T01:34:16.843Z,78.78
2017-07-12T01:36:44.259Z,78.93
2017-07-12T01:39:11.643Z,79.76
2017-07-12T01:41:39.043Z,80.03
2017-07-12T01:44:06.443Z,79.39
2017-07-12T01:46:33.851Z,78.29
2017-07-12T01:49:01.255Z,78.30
2017-07-12T01:51:28.959Z,77.20
2017-07-12T01:53:56.356Z,75.60
2017-07-12T01:56:23.759Z,74.97
2017-07-12T01:58:51.159Z,74.49
2017-07-12T02:01:18.565Z,74.74
2017-07-12T02:03:45.977Z,74.24
2017-07-12T02:06:13.378Z,73.74
2017-07-12T02:08:40.788Z,73.87
2017-07-12T02:11:08.408Z,72.91
2017-07-12T02:13:35.812Z,72.62
2017-07-12T02:16:03.523Z,73.44
2017-07-12T02:18:30.934Z,74.30
2017-07-12T02:20:58.330Z,74.85
2017-07-12T02:23:25.743Z,74.89
2017-07-12T02:25:53.151Z,75.07
2017-07-12T02:28:20.555Z,75.37
2017-07-12T02:30:47.960Z,75.44
2017-07-12T02:33:15.368Z,75.16
2017-07-12T02:35:42.769Z,75.69
2017-07-12T02:38:10.176Z,75.18
2017-07-12T02:40:37.579Z,75.21
2017-07-12T02:43:04.988Z,75.11
2017-07-12T02:45:32.392Z,74.72
2017-07-12T02:47:59.797Z,74.25
2017-07-12T02:50:27.196Z,73.59
2017-07-12T02:52:54.604Z,73.62
2017-07-12T02:55:22.319Z,73.55
2017-07-12T02:57:49.735Z,73.69
2017-07-12T03:00:17.128Z,73.70
2017-07-12T03:02:44.534Z,73.68
2017-07-12T03:05:11.935Z,73.95
2017-07-12T03:07:39.348Z,74.85
2017-07-12T03:10:07.059Z,75.41
2017-07-12T03:12:34.461Z,76.16
2017-07-12T03:15:01.865Z,75.86
2017-07-12T03:17:29.259Z,76.04
2017-07-12T03:19:56.663Z,75.73
2017-07-12T03:22:24.063Z,75.03
2017-07-12T03:24:51.468Z,74.59
2017-07-12T03:27:18.867Z,74.84
2017-07-12T03:29:46.294Z,74.51
2017-07-12T03:32:13.686Z,74.80
2017-07-12T03:34:41.083Z,73.75
2017-07-12T03:37:08.492Z,72.97
2017-07-12T03:39:47.704Z,72.44
2017-07-12T03:42:15.095Z,72.58
2017-07-12T03:44:42.503Z,73.75
2017-07-12T03:47:09.906Z,74.68
2017-07-12T03:49:37.307Z,75.05
2017-07-12T03:52:04.706Z,75.05
2017-07-12T03:54:32.107Z,74.52
2017-07-12T03:56:59.506Z,74.53
2017-07-12T03:59:26.910Z,73.91
2017-07-12T04:01:54.380Z,73.06
2017-07-12T04:04:21.822Z,74.27
2017-07-12T04:06:49.208Z,73.97
2017-07-12T04:09:16.632Z,73.60
2017-07-12T04:11:44.038Z,74.11
2017-07-12T04:14:11.684Z,73.90
2017-07-12T04:16:39.083Z,73.78
2017-07-12T04:19:06.487Z,73.51
2017-07-12T04:21:33.943Z,73.97
2017-07-12T04:24:01.355Z,75.06
2017-07-12T04:26:28.751Z,73.90
2017-07-12T04:28:56.183Z,74.13
2017-07-12T04:31:23.584Z,74.23
2017-07-12T04:33:51.235Z,73.80
2017-07-12T04:36:18.647Z,72.95
2017-07-12T04:38:46.043Z,73.82
2017-07-12T04:41:13.463Z,74.47
2017-07-12T04:43:40.854Z,73.82
2017-07-12T04:46:08.265Z,74.10
2017-07-12T04:48:35.671Z,73.98
2017-07-12T04:51:03.074Z,73.95
2017-07-12T04:53:30.473Z,73.82
2017-07-12T04:55:57.886Z,74.33
2017-07-12T04:58:25.279Z,74.77
2017-07-12T05:00:52.691Z,74.17
2017-07-12T05:03:20.106Z,74.76
2017-07-12T05:05:47.523Z,74.84
2017-07-12T05:08:14.926Z,75.05
2017-07-12T05:10:42.344Z,75.52
2017-07-12T05:13:09.771Z,75.43
2017-07-12T05:15:37.184Z,75.79
2017-07-12T05:18:04.579Z,76.00
2017-07-12T05:20:31.992Z,75.83
2017-07-12T05:22:59.399Z,76.02
2017-07-12T05:25:27.108Z,75.98
2017-07-12T05:27:54.516Z,76.83
2017-07-12T05:30:21.919Z,76.87
2017-07-12T05:32:49.321Z,76.09
2017-07-12T05:35:16.727Z,77.07
2017-07-12T05:37:44.128Z,77.50
2017-07-12T05:40:11.552Z,77.39
2017-07-12T05:42:38.947Z,77.91
2017-07-12T05:45:06.351Z,78.50
2017-07-12T05:47:33.768Z,78.71
2017-07-12T05:50:01.160Z,77.41
2017-07-12T05:52:28.823Z,78.29
2017-07-12T05:54:56.491Z,77.75
2017-07-12T05:57:23.898Z,77.12
2017-07-12T05:59:51.292Z,77.94
2017-07-12T06:02:18.696Z,78.28
2017-07-12T06:04:46.097Z,78.59
2017-07-12T06:07:13.508Z,79.25
2017-07-12T06:09:40.911Z,78.53
2017-07-12T06:12:08.355Z,78.98
2017-07-12T06:14:35.760Z,77.92
2017-07-12T06:17:03.167Z,78.41
2017-07-12T06:19:30.566Z,78.41
2017-07-12T06:21:57.990Z,78.12
2017-07-12T06:24:25.387Z,78.95
2017-07-12T06:26:52.804Z,79.43
2017-07-12T06:29:20.206Z,79.19
2017-07-12T06:31:47.616Z,79.19
2017-07-12T06:34:15.010Z,77.55
2017-07-12T06:36:42.735Z,79.26
2017-07-12T06:39:10.131Z,79.32
2017-07-12T06:41:37.570Z,78.49
2017-07-12T06:44:04.970Z,78.06
2017-07-12T06:46:32.663Z,77.56
2017-07-12T06:49:00.059Z,77.98
2017-07-12T06:51:27.488Z,78.23
2017-07-12T06:53:55.187Z,78.59
2017-07-12T06:56:22.751Z,78.30
2017-07-12T06:58:50.163Z,78.74
2017-07-12T07:01:17.547Z,79.21
2017-07-12T07:03:44.955Z,78.92
2017-07-12T07:06:12.351Z,79.22
2017-07-12T07:08:39.766Z,79.12
2017-07-12T07:11:07.191Z,79.25
2017-07-12T07:13:34.595Z,80.26
2017-07-12T07:16:01.994Z,79.78
2017-07-12T07:18:29.403Z,80.15
2017-07-12T07:20:56.800Z,80.28
2017-07-12T07:23:24.198Z,79.74
2017-07-12T07:25:51.598Z,80.00
2017-07-12T07:28:19.012Z,80.44
2017-07-12T07:30:46.415Z,78.98
2017-07-12T07:33:13.847Z,77.98
2017-07-12T07:35:41.248Z,77.38
2017-07-12T07:38:08.659Z,79.44
2017-07-12T07:40:36.056Z,79.93
2017-07-12T07:43:03.467Z,80.27
2017-07-12T07:45:31.112Z,80.35
2017-07-12T07:50:25.212Z,79.05
2017-07-12T07:52:52.622Z,78.88
2017-07-12T07:55:20.324Z,78.40
2017-07-12T07:57:47.732Z,79.39
2017-07-12T08:00:15.133Z,79.44
2017-07-12T08:02:42.535Z,79.32
2017-07-12T08:05:09.941Z,78.96
2017-07-12T08:07:37.337Z,78.29
2017-07-12T08:10:04.742Z,77.28
2017-07-12T08:12:32.145Z,78.35
2017-07-12T08:14:59.555Z,78.21
2017-07-12T08:17:26.952Z,78.97
2017-07-12T08:19:54.354Z,78.19
2017-07-12T08:22:21.750Z,78.63
2017-07-12T08:24:49.161Z,78.32
2017-07-12T08:27:16.554Z,78.40
2017-07-12T08:29:43.958Z,79.29
2017-07-12T08:34:38.060Z,79.24
2017-07-12T08:37:05.455Z,78.24
2017-07-12T08:39:33.110Z,78.62
2017-07-12T08:42:00.510Z,79.23
2017-07-12T08:44:27.924Z,79.81
2017-07-12T08:46:55.327Z,80.89
2017-07-12T08:49:22.734Z,80.87
2017-07-12T08:51:50.135Z,81.09
2017-07-12T08:54:17.548Z,80.23
2017-07-12T08:56:44.949Z,79.06
2017-07-12T08:59:12.571Z,79.06
2017-07-12T09:01:39.964Z,79.28
2017-07-12T09:04:07.374Z,79.33
2017-07-12T09:06:34.982Z,79.37
2017-07-12T09:09:02.388Z,79.48
2017-07-12T09:11:29.788Z,79.04
2017-07-12T09:13:57.193Z,79.79
2017-07-12T09:16:24.587Z,79.71
2017-07-12T09:18:52.014Z,79.70
2017-07-12T09:21:19.551Z,78.92
2017-07-12T09:23:46.946Z,78.40
2017-07-12T09:33:36.546Z,75.75
2017-07-12T09:36:03.947Z,74.87
2017-07-12T09:38:31.338Z,75.10
2017-07-12T09:40:58.731Z,74.02
2017-07-12T09:43:26.131Z,74.55
2017-07-12T09:45:53.535Z,74.88
2017-07-12T09:48:20.936Z,74.01
2017-07-12T09:50:48.332Z,73.58
2017-07-12T09:53:16.091Z,73.40
2017-07-12T09:55:43.500Z,74.18
2017-07-12T09:58:10.891Z,74.94
2017-07-12T10:00:38.334Z,74.65
2017-07-12T10:03:05.717Z,74.95
2017-07-12T10:05:33.187Z,74.78
2017-07-12T10:08:00.604Z,74.39
2017-07-12T10:10:28.008Z,75.67
2017-07-12T10:12:55.402Z,75.21
2017-07-12T10:15:22.819Z,75.10
2017-07-12T10:17:50.192Z,75.44
2017-07-12T10:20:17.595Z,75.83
2017-07-12T10:22:44.988Z,76.22
2017-07-12T10:25:12.387Z,75.37
2017-07-12T10:27:39.776Z,75.36
2017-07-12T10:30:07.172Z,75.28
2017-07-12T10:32:34.559Z,76.19
2017-07-12T10:35:01.942Z,77.27
2017-07-12T10:37:29.335Z,76.36
2017-07-12T10:39:56.727Z,76.23
2017-07-12T10:42:24.118Z,76.99
2017-07-12T10:44:51.507Z,76.48
2017-07-12T10:47:18.900Z,76.68
2017-07-12T10:49:46.503Z,75.76
2017-07-12T10:52:13.695Z,74.54
2017-07-12T10:57:14.971Z,70.54
2017-07-12T10:59:42.355Z,73.59
2017-07-12T11:02:09.754Z,70.65
2017-07-12T11:04:37.135Z,72.19
2017-07-12T11:07:04.530Z,73.69
2017-07-12T11:09:31.923Z,74.12
2017-07-12T11:11:59.311Z,74.24
2017-07-12T11:14:26.726Z,73.29
2017-07-12T11:16:54.107Z,74.71
2017-07-12T11:19:21.497Z,73.58
2017-07-12T11:21:48.896Z,73.78
2017-07-12T11:24:16.286Z,73.75
2017-07-12T11:26:43.678Z,73.15
2017-07-12T11:29:11.067Z,74.21
2017-07-12T11:31:38.459Z,75.12
2017-07-12T11:34:05.844Z,75.14
2017-07-12T11:36:33.230Z,75.32
2017-07-12T11:39:00.931Z,76.96
2017-07-12T11:41:28.338Z,77.69
2017-07-12T11:43:55.714Z,78.54
2017-07-12T11:46:23.104Z,78.15
2017-07-12T11:48:50.502Z,79.00
2017-07-12T11:51:17.903Z,80.11
2017-07-12T11:53:45.300Z,80.77
2017-07-12T11:56:12.687Z,79.87
2017-07-12T11:58:40.087Z,80.47
2017-07-12T12:01:07.476Z,80.76
2017-07-12T12:03:34.865Z,80.10
2017-07-12T12:06:02.543Z,80.60
2017-07-12T12:08:29.946Z,81.04
2017-07-12T12:10:57.559Z,80.26
2017-07-12T12:13:24.961Z,80.92
2017-07-12T12:15:52.341Z,81.57
2017-07-12T12:18:19.730Z,81.96
2017-07-12T12:20:47.127Z,81.77
2017-07-12T12:23:14.510Z,82.28
2017-07-12T12:25:41.891Z,82.52
2017-07-12T12:28:09.282Z,83.75
2017-07-12T12:30:36.663Z,83.05
2017-07-12T12:33:04.056Z,83.99
2017-07-12T12:35:31.434Z,83.68
2017-07-12T12:37:58.823Z,82.70
2017-07-12T12:40:26.223Z,83.17
2017-07-12T12:42:53.649Z,83.36
2017-07-12T12:45:21.047Z,83.70
2017-07-12T12:47:48.439Z,83.36
2017-07-12T12:50:15.838Z,84.47
2017-07-12T12:52:43.235Z,83.53
2017-07-12T12:55:10.627Z,84.06
2017-07-12T12:57:38.031Z,82.99
2017-07-12T13:00:05.423Z,83.63
2017-07-12T13:02:32.806Z,82.97
2017-07-12T13:05:05.798Z,81.86
2017-07-12T13:07:33.186Z,82.49
2017-07-12T13:10:00.575Z,82.49
2017-07-12T13:12:27.969Z,83.66
2017-07-12T13:14:55.364Z,83.53
2017-07-12T13:17:22.760Z,83.25
2017-07-12T13:19:50.947Z,83.82
2017-07-12T13:22:18.339Z,83.80
2017-07-12T13:24:45.739Z,83.63
2017-07-12T13:27:13.135Z,83.19
2017-07-12T13:29:40.539Z,82.74
2017-07-12T13:32:07.928Z,82.43
2017-07-12T13:34:35.322Z,82.78
2017-07-12T13:37:02.719Z,82.16
2017-07-12T13:39:30.121Z,83.00
2017-07-12T13:41:57.511Z,83.15
2017-07-12T13:44:25.111Z,83.03
2017-07-12T13:46:52.501Z,83.21
2017-07-12T13:49:19.899Z,83.59
2017-07-12T13:51:47.294Z,84.60
2017-07-12T13:54:14.690Z,84.90
2017-07-12T13:56:42.079Z,85.11
2017-07-12T13:59:09.474Z,84.79
2017-07-12T14:01:36.936Z,85.61
2017-07-12T14:04:04.318Z,85.18
2017-07-12T14:06:31.721Z,84.56
2017-07-12T14:08:59.143Z,84.97
2017-07-12T14:11:26.540Z,84.45
2017-07-12T14:13:53.946Z,84.43
2017-07-12T14:16:21.401Z,85.01
2017-07-12T14:18:48.752Z,84.43
2017-07-12T14:21:16.159Z,85.30
2017-07-12T14:23:43.559Z,85.13
2017-07-12T14:26:10.968Z,84.36
2017-07-12T14:28:38.387Z,84.60
2017-07-12T14:31:05.783Z,84.60
2017-07-12T14:33:33.189Z,83.74
2017-07-12T14:36:00.587Z,84.63
2017-07-12T14:38:28.006Z,84.31
2017-07-12T14:40:55.403Z,84.38
2017-07-12T14:43:22.807Z,84.75
2017-07-12T14:45:50.210Z,84.03
2017-07-12T14:48:17.632Z,84.14
2017-07-12T14:50:45.030Z,84.17
2017-07-12T14:53:12.439Z,84.41
2017-07-12T14:55:39.844Z,84.04
2017-07-12T14:58:07.241Z,83.51
2017-07-12T15:00:34.642Z,83.37
2017-07-12T15:03:02.078Z,83.74
2017-07-12T15:05:29.480Z,84.59
2017-07-12T15:07:56.879Z,84.11
2017-07-12T15:10:24.284Z,83.73
2017-07-12T15:12:51.687Z,83.30
2017-07-12T15:15:19.091Z,83.08
2017-07-12T15:17:46.500Z,82.74
2017-07-12T15:20:13.911Z,82.77
2017-07-12T15:22:41.314Z,83.50
2017-07-12T15:25:08.747Z,84.35
2017-07-12T15:27:36.142Z,84.65
2017-07-12T15:30:03.528Z,85.49
2017-07-12T15:32:30.932Z,86.26
2017-07-12T15:34:58.323Z,85.77
2017-07-12T15:37:25.728Z,86.37
2017-07-12T15:39:53.331Z,86.98
2017-07-12T15:42:20.743Z,86.73
2017-07-12T15:44:48.167Z,84.76
2017-07-12T15:47:15.559Z,85.11
2017-07-12T15:49:42.953Z,85.55
2017-07-12T15:52:10.360Z,84.68
2017-07-12T15:54:37.752Z,85.09
2017-07-12T15:57:05.151Z,84.90
2017-07-12T15:59:32.543Z,84.62
2017-07-12T16:01:59.943Z,84.94
2017-07-12T16:04:27.339Z,85.65
2017-07-12T16:06:54.731Z,84.58
2017-07-12T16:09:22.125Z,85.83
2017-07-12T16:11:49.529Z,85.59
2017-07-12T16:14:16.919Z,85.65
2017-07-12T16:16:44.327Z,85.88
2017-07-12T16:19:11.715Z,84.45
2017-07-12T16:21:39.111Z,84.65
2017-07-12T16:24:06.827Z,85.30
2017-07-12T16:26:34.223Z,86.02
2017-07-12T16:29:01.618Z,86.85
2017-07-12T16:31:29.007Z,86.48
2017-07-12T16:33:56.403Z,85.29
2017-07-12T16:36:23.805Z,85.55
2017-07-12T16:38:51.200Z,85.85
2017-07-12T16:41:18.591Z,85.92
2017-07-12T16:43:45.996Z,86.05
2017-07-12T16:46:13.391Z,86.00
2017-07-12T16:48:40.784Z,86.32
2017-07-12T16:51:08.177Z,86.32
2017-07-12T16:53:35.583Z,85.41
2017-07-12T16:56:02.980Z,84.02
2017-07-12T16:58:30.373Z,83.62
2017-07-12T17:00:57.761Z,84.84
2017-07-12T17:03:25.167Z,84.94
2017-07-12T17:05:52.880Z,83.39
2017-07-12T17:08:20.280Z,83.29
2017-07-12T17:10:47.665Z,83.33
2017-07-12T17:13:15.095Z,83.87
2017-07-12T17:15:42.471Z,82.77
2017-07-12T17:18:09.869Z,84.20
2017-07-12T17:20:37.263Z,83.92
2017-07-12T17:23:04.654Z,83.69
2017-07-12T17:25:32.051Z,83.38
2017-07-12T17:27:59.443Z,84.23
2017-07-12T17:30:26.838Z,83.62
2017-07-12T17:32:54.243Z,84.00
2017-07-12T17:35:21.628Z,85.00
2017-07-12T17:37:49.028Z,85.16
2017-07-12T17:40:17.307Z,84.78
2017-07-12T17:42:44.935Z,84.64
2017-07-12T17:45:12.324Z,84.53
2017-07-12T17:47:39.745Z,84.88
2017-07-12T17:50:07.137Z,85.32
2017-07-12T17:52:34.526Z,86.03
2017-07-12T17:55:01.918Z,86.11
2017-07-12T17:57:29.307Z,85.98
2017-07-12T17:59:56.748Z,86.90
2017-07-12T18:02:24.191Z,86.39
2017-07-12T18:04:51.539Z,85.58
2017-07-12T18:07:18.933Z,86.28
2017-07-12T18:09:46.329Z,85.69
2017-07-12T18:12:13.738Z,85.66
2017-07-12T18:14:41.127Z,85.76
2017-07-12T18:17:08.536Z,85.50
2017-07-12T18:19:35.933Z,85.45
2017-07-12T18:22:03.334Z,84.79
2017-07-12T18:24:30.735Z,84.36
2017-07-12T18:26:58.124Z,83.87
2017-07-12T18:29:25.531Z,84.15
2017-07-12T18:31:52.923Z,83.58
2017-07-12T18:34:20.326Z,82.06
2017-07-12T18:36:47.712Z,82.33
2017-07-12T18:39:15.119Z,81.51
2017-07-12T18:41:42.513Z,79.78
2017-07-12T18:44:09.915Z,79.48
2017-07-12T18:46:37.552Z,79.54
2017-07-12T18:49:04.946Z,79.57
2017-07-12T18:51:32.330Z,79.83
2017-07-12T18:53:59.730Z,79.04
2017-07-12T18:56:27.127Z,78.71
2017-07-12T18:58:54.572Z,78.89
2017-07-12T19:01:21.951Z,78.69
2017-07-12T19:03:49.351Z,78.30
2017-07-12T19:06:16.742Z,78.82
2017-07-12T19:11:17.919Z,79.65
2017-07-12T19:13:45.312Z,79.85
2017-07-12T19:16:12.695Z,80.11
2017-07-12T19:18:40.499Z,80.10
2017-07-12T19:21:07.895Z,79.67
2017-07-12T19:23:35.378Z,79.17
2017-07-12T19:26:02.696Z,77.69
2017-07-12T19:28:30.091Z,76.87
2017-07-12T19:30:57.490Z,77.84
2017-07-12T19:33:24.891Z,77.94
2017-07-12T19:35:52.293Z,78.11
2017-07-12T19:38:20.011Z,78.42
2017-07-12T19:40:47.407Z,78.49
2017-07-12T19:43:14.903Z,78.28
2017-07-12T19:45:42.299Z,77.79
2017-07-12T19:48:09.695Z,77.73
2017-07-12T19:50:37.110Z,77.75
2017-07-12T19:53:04.491Z,77.78
2017-07-12T19:55:31.903Z,78.16
2017-07-12T19:57:59.295Z,77.96
2017-07-12T20:00:26.697Z,77.81
2017-07-12T20:02:54.087Z,77.69
2017-07-12T20:05:21.487Z,77.52
2017-07-12T20:07:48.879Z,77.59
2017-07-12T20:10:16.284Z,77.87
2017-07-12T20:12:43.687Z,77.90
2017-07-12T20:15:11.088Z,77.66
2017-07-12T20:17:38.495Z,77.34
2017-07-12T20:20:05.891Z,77.54
2017-07-12T20:22:33.515Z,77.19
2017-07-12T20:25:00.907Z,77.27
2017-07-12T20:27:28.303Z,76.98
2017-07-12T20:29:55.696Z,77.08
2017-07-12T20:32:23.343Z,77.16
2017-07-12T20:34:50.755Z,76.93
2017-07-12T20:37:18.157Z,76.81
2017-07-12T20:39:45.543Z,76.92
2017-07-12T20:42:12.948Z,76.81
2017-07-12T20:44:40.344Z,76.56
2017-07-12T20:47:07.740Z,76.43
2017-07-12T20:49:35.127Z,76.28
2017-07-12T20:52:02.522Z,76.08
2017-07-12T20:54:29.915Z,76.28
2017-07-12T20:56:57.329Z,76.42
2017-07-12T20:59:24.715Z,76.18
2017-07-12T21:01:52.112Z,76.20
2017-07-12T21:04:19.499Z,76.36
2017-07-12T21:06:46.903Z,76.67
2017-07-12T21:09:14.296Z,76.81
2017-07-12T21:11:41.699Z,76.81
2017-07-12T21:14:09.391Z,76.92
2017-07-12T21:16:36.812Z,76.96
2017-07-12T21:19:04.200Z,77.00
2017-07-12T21:21:31.587Z,77.10
2017-07-12T21:23:58.995Z,77.27
2017-07-12T21:26:26.390Z,77.39
2017-07-12T21:28:53.784Z,77.04
2017-07-12T21:31:21.195Z,77.19
2017-07-12T21:33:48.588Z,77.28
2017-07-12T21:36:15.987Z,76.96
2017-07-12T21:38:43.383Z,77.26
2017-07-12T21:41:10.786Z,77.62
2017-07-12T21:43:38.182Z,77.82
2017-07-12T21:46:05.571Z,78.15
2017-07-12T21:48:32.975Z,77.93
2017-07-12T21:51:00.366Z,77.89
2017-07-12T21:53:45.247Z,77.62
2017-07-12T21:56:30.222Z,77.45
2017-07-12T21:59:15.187Z,77.39
2017-07-12T22:02:00.168Z,77.17
2017-07-12T22:04:45.147Z,76.78
2017-07-12T22:07:30.110Z,76.50
2017-07-12T22:10:14.959Z,76.63
2017-07-12T22:12:59.907Z,76.67
2017-07-12T22:15:44.801Z,76.00
2017-07-12T22:18:29.869Z,76.51
2017-07-12T22:21:14.836Z,76.88
2017-07-12T22:23:59.925Z,76.51
2017-07-12T22:26:44.807Z,76.83
2017-07-12T22:29:29.651Z,76.82
2017-07-12T22:32:14.472Z,76.86
2017-07-12T22:34:59.432Z,76.90
2017-07-12T22:37:32.467Z,76.94
2017-07-12T22:40:05.247Z,77.02
2017-07-12T22:42:38.150Z,77.11
2017-07-12T22:45:05.548Z,77.22
2017-07-12T22:47:32.949Z,77.32
2017-07-12T22:50:00.338Z,76.45
2017-07-12T22:52:27.733Z,76.54
2017-07-12T22:54:55.131Z,75.73
2017-07-12T22:57:22.528Z,76.08
2017-07-12T22:59:49.927Z,75.85
2017-07-12T23:02:17.355Z,75.66
2017-07-12T23:04:44.764Z,75.75
2017-07-12T23:07:12.163Z,75.72
2017-07-12T23:09:39.588Z,75.65
2017-07-12T23:12:06.972Z,75.58
2017-07-12T23:14:34.367Z,75.85
2017-07-12T23:17:01.771Z,75.87
2017-07-12T23:19:29.171Z,76.09
2017-07-12T23:21:56.580Z,76.12
2017-07-12T23:24:23.970Z,76.83
2017-07-12T23:26:51.387Z,77.65
2017-07-12T23:29:18.825Z,78.38
2017-07-12T23:31:46.223Z,78.85
2017-07-12T23:34:13.631Z,79.11
2017-07-12T23:36:41.022Z,79.44
2017-07-12T23:39:08.432Z,79.61
2017-07-12T23:41:35.835Z,79.54
2017-07-12T23:44:03.255Z,79.07
2017-07-12T23:46:30.647Z,79.01
2017-07-12T23:48:58.043Z,78.77
2017-07-12T23:51:25.449Z,78.43
2017-07-12T23:53:52.839Z,78.28
2017-07-12T23:56:20.237Z,77.82
2017-07-12T23:58:47.628Z,77.24
